Time;durP1;ratioP1;P1;durP2;ratioP2;P2;SDS_P1;SDS_P2;PMS_P1;PMS_P2;Temp;Humidity;BMP_temperature;BMP_pressure;BME280_temperature;BME280_humidity;BME280_pressure;Samples;Min_cycle;Max_cycle;Signal;HPM_P1;HPM_P2
2022/03/23 00:00:39;;;;;;;9.50;6.93;;;7.60;99.90;;;;;;5110853;28;20150;-75
2022/03/23 00:03:05;;;;;;;10.40;8.02;;;7.60;99.90;;;;;;5071675;28;20395;-75
2022/03/23 00:05:32;;;;;;;9.15;6.75;;;7.50;99.90;;;;;;5087979;28;20044;-75
2022/03/23 00:07:58;;;;;;;10.70;7.70;;;7.50;99.90;;;;;;5106917;28;20043;-74
2022/03/23 00:10:24;;;;;;;10.18;7.22;;;7.40;99.90;;;;;;5104066;28;20046;-74
2022/03/23 00:12:51;;;;;;;9.45;6.93;;;7.30;99.90;;;;;;5110515;28;20080;-74
2022/03/23 00:15:17;;;;;;;9.65;6.43;;;7.30;99.90;;;;;;5092816;28;20081;-74
2022/03/23 00:17:43;;;;;;;8.50;6.53;;;7.20;99.90;;;;;;5065321;28;20436;-74
2022/03/23 00:20:09;;;;;;;8.85;6.13;;;7.10;99.90;;;;;;5087442;28;20047;-74
2022/03/23 00:22:35;;;;;;;7.72;5.40;;;7.10;99.90;;;;;;5109388;28;20039;-74
2022/03/23 00:25:01;;;;;;;8.43;5.95;;;7.10;99.90;;;;;;5110160;28;20039;-75
2022/03/23 00:27:26;;;;;;;9.00;6.50;;;7.00;99.90;;;;;;5092261;28;20122;-74
2022/03/23 00:29:52;;;;;;;9.50;6.85;;;7.00;99.90;;;;;;5109795;28;20126;-74
2022/03/23 00:32:18;;;;;;;9.07;6.18;;;6.90;99.90;;;;;;5091415;28;20047;-74
2022/03/23 00:34:46;;;;;;;8.75;6.03;;;6.90;99.90;;;;;;5103721;28;20100;-74
2022/03/23 00:37:12;;;;;;;7.55;5.45;;;6.90;99.90;;;;;;5092768;28;20486;-75
2022/03/23 00:39:38;;;;;;;8.40;6.25;;;6.80;99.90;;;;;;5109621;28;20032;-75
2022/03/23 00:42:04;;;;;;;7.82;5.20;;;6.80;99.90;;;;;;5102605;28;20032;-75
2022/03/23 00:44:30;;;;;;;7.05;5.28;;;6.70;99.90;;;;;;5098163;28;20063;-74
2022/03/23 00:46:56;;;;;;;6.85;4.95;;;6.70;99.90;;;;;;5109976;28;20039;-75
2022/03/23 00:49:21;;;;;;;8.05;6.15;;;6.60;99.90;;;;;;5109683;28;20043;-75
2022/03/23 00:51:47;;;;;;;10.20;7.53;;;6.60;99.90;;;;;;5109609;28;20135;-74
2022/03/23 00:54:13;;;;;;;12.13;7.68;;;6.60;99.90;;;;;;5087604;28;20047;-74
2022/03/23 00:56:38;;;;;;;12.98;9.00;;;6.50;99.90;;;;;;5109418;28;20047;-74
2022/03/23 00:59:07;;;;;;;12.05;8.65;;;6.50;99.90;;;;;;5109467;28;20054;-75
2022/03/23 01:01:32;;;;;;;11.43;7.95;;;6.60;99.90;;;;;;5108244;28;20047;-74
2022/03/23 01:03:58;;;;;;;11.68;7.57;;;6.50;99.90;;;;;;5075719;28;20088;-75
2022/03/23 01:06:24;;;;;;;10.27;7.15;;;6.50;99.90;;;;;;5109335;28;20046;-74
2022/03/23 01:08:49;;;;;;;9.50;6.63;;;6.40;99.90;;;;;;5103193;28;20062;-74
2022/03/23 01:11:15;;;;;;;10.13;7.15;;;6.40;99.90;;;;;;5109755;28;20124;-75
2022/03/23 01:13:41;;;;;;;9.10;6.13;;;6.40;99.90;;;;;;5108094;28;20055;-74
2022/03/23 01:16:06;;;;;;;8.60;5.88;;;6.30;99.90;;;;;;5106762;28;20039;-74
2022/03/23 01:18:33;;;;;;;10.10;7.38;;;6.30;99.90;;;;;;5091140;28;20039;-74
2022/03/23 01:21:00;;;;;;;14.18;9.10;;;6.30;99.90;;;;;;5108995;28;20106;-74
2022/03/23 01:23:27;;;;;;;15.10;10.73;;;6.30;99.90;;;;;;5109378;28;20128;-74
2022/03/23 01:25:53;;;;;;;15.05;10.45;;;6.30;99.90;;;;;;5091754;28;20186;-74
2022/03/23 01:28:18;;;;;;;14.00;9.93;;;6.30;99.90;;;;;;5108355;28;20055;-75
2022/03/23 01:30:44;;;;;;;12.95;9.00;;;6.30;99.90;;;;;;5102117;28;20046;-74
2022/03/23 01:33:10;;;;;;;9.93;6.93;;;6.30;99.90;;;;;;5106588;28;20082;-75
2022/03/23 01:35:35;;;;;;;10.18;7.32;;;6.20;99.90;;;;;;5110316;28;20075;-74
2022/03/23 01:38:01;;;;;;;9.73;6.80;;;6.20;99.90;;;;;;5096100;28;20047;-74
2022/03/23 01:40:28;;;;;;;10.30;6.68;;;6.20;99.90;;;;;;5113222;28;20130;-74
2022/03/23 01:42:53;;;;;;;8.23;5.78;;;6.10;99.90;;;;;;5095994;28;20111;-74
2022/03/23 01:45:19;;;;;;;12.57;6.80;;;6.10;99.90;;;;;;5112804;28;20115;-74
2022/03/23 01:47:45;;;;;;;9.93;7.07;;;6.10;99.90;;;;;;5092391;28;20036;-75
2022/03/23 01:50:11;;;;;;;8.95;6.38;;;6.00;99.90;;;;;;5113330;28;20032;-75
2022/03/23 01:52:38;;;;;;;19.23;12.20;;;6.00;99.90;;;;;;5094319;28;20125;-76
2022/03/23 01:55:17;;;;;;;15.07;9.90;;;6.00;99.90;;;;;;5110328;28;20401;-75
2022/03/23 01:57:49;;;;;;;15.32;10.07;;;6.00;99.90;;;;;;5112876;28;20047;-75
2022/03/23 02:00:16;;;;;;;14.27;10.05;;;6.00;99.90;;;;;;5112147;28;20062;-75
2022/03/23 02:02:44;;;;;;;13.90;10.23;;;6.00;99.90;;;;;;5095099;28;20032;-75
2022/03/23 02:05:11;;;;;;;12.48;8.68;;;5.90;99.90;;;;;;5112190;28;20038;-76
2022/03/23 02:07:37;;;;;;;13.63;9.13;;;5.90;99.90;;;;;;5108832;28;20097;-75
2022/03/23 02:10:05;;;;;;;10.80;7.63;;;5.90;99.90;;;;;;5111226;28;20499;-75
2022/03/23 02:12:30;;;;;;;11.82;8.27;;;5.80;99.90;;;;;;5093560;28;20431;-75
2022/03/23 02:14:58;;;;;;;10.52;7.28;;;5.80;99.90;;;;;;5092603;28;20040;-75
2022/03/23 02:17:25;;;;;;;11.50;7.68;;;5.80;99.90;;;;;;5097502;28;20402;-75
2022/03/23 02:19:54;;;;;;;12.65;8.32;;;5.70;99.90;;;;;;5113933;27;20485;-75
2022/03/23 02:22:19;;;;;;;11.43;7.80;;;5.60;99.90;;;;;;5091948;28;20031;-75
2022/03/23 02:24:48;;;;;;;10.93;7.60;;;5.60;99.90;;;;;;5095391;28;20102;-74
2022/03/23 02:27:14;;;;;;;11.02;7.38;;;5.60;99.90;;;;;;5112059;28;20051;-74
2022/03/23 02:29:40;;;;;;;10.45;6.47;;;5.50;99.90;;;;;;5090440;28;20145;-75
2022/03/23 02:32:06;;;;;;;11.80;6.90;;;5.50;99.90;;;;;;5112468;28;20154;-75
2022/03/23 02:34:31;;;;;;;11.25;8.00;;;5.50;99.90;;;;;;5110052;28;20072;-75
2022/03/23 02:36:58;;;;;;;12.02;7.93;;;5.40;99.90;;;;;;5094100;28;20039;-76
2022/03/23 02:39:25;;;;;;;10.65;7.38;;;5.40;99.90;;;;;;5111163;28;20118;-75
2022/03/23 02:41:53;;;;;;;10.52;6.88;;;5.40;99.90;;;;;;5111425;28;20036;-75
2022/03/23 02:44:20;;;;;;;8.82;6.00;;;5.30;99.90;;;;;;5111906;28;20076;-75
2022/03/23 02:46:46;;;;;;;9.43;6.28;;;5.20;99.90;;;;;;5110509;28;20365;-75
2022/03/23 02:49:20;;;;;;;9.15;6.15;;;5.30;99.90;;;;;;5105329;28;20052;-75
2022/03/23 02:51:47;;;;;;;8.88;5.90;;;5.20;99.90;;;;;;5095019;28;20064;-75
2022/03/23 03:03:08;;;;;;;9.50;6.03;;;5.00;99.90;;;;;;5091439;28;20075;-74
2022/03/23 03:05:34;;;;;;;8.10;5.53;;;5.10;99.90;;;;;;5092155;28;20127;-74
2022/03/23 03:10:43;;;;;;;7.72;5.22;;;5.00;99.90;;;;;;5110477;28;20186;-74
2022/03/23 03:13:09;;;;;;;7.07;4.97;;;5.00;99.90;;;;;;5110827;28;20130;-74
2022/03/23 03:15:35;;;;;;;8.73;5.70;;;4.90;99.90;;;;;;5110914;28;20792;-74
2022/03/23 03:18:01;;;;;;;10.45;6.57;;;4.90;99.90;;;;;;5111041;28;20502;-75
2022/03/23 03:20:27;;;;;;;8.73;6.07;;;4.90;99.90;;;;;;5093579;28;20444;-74
2022/03/23 03:22:53;;;;;;;8.10;5.80;;;4.90;99.90;;;;;;5093601;28;20040;-74
2022/03/23 03:25:20;;;;;;;8.35;5.78;;;4.90;99.90;;;;;;5110690;28;20047;-74
2022/03/23 03:27:47;;;;;;;6.75;5.00;;;4.80;99.90;;;;;;5109804;28;20032;-74
2022/03/23 03:30:15;;;;;;;6.78;4.72;;;4.80;99.90;;;;;;5104340;28;20433;-74
2022/03/23 03:32:41;;;;;;;8.85;6.35;;;4.80;99.90;;;;;;5110096;28;20486;-74
2022/03/23 03:35:08;;;;;;;8.60;5.72;;;4.80;99.90;;;;;;5111057;28;20063;-74
2022/03/23 03:37:35;;;;;;;8.07;5.68;;;4.70;99.90;;;;;;5090576;28;20054;-74
2022/03/23 03:40:03;;;;;;;9.90;6.38;;;4.70;99.90;;;;;;5110028;28;20367;-74
2022/03/23 03:42:29;;;;;;;8.07;5.63;;;4.60;99.90;;;;;;5103192;28;20040;-74
2022/03/23 03:44:55;;;;;;;8.23;5.63;;;4.60;99.90;;;;;;5109090;28;20039;-75
2022/03/23 03:47:20;;;;;;;9.20;6.30;;;4.70;99.90;;;;;;5108937;28;20032;-74
2022/03/23 03:49:46;;;;;;;9.18;6.35;;;4.70;99.90;;;;;;5110297;28;20055;-73
2022/03/23 03:52:13;;;;;;;9.23;6.60;;;4.70;99.90;;;;;;5110201;28;20421;-72
2022/03/23 03:54:39;;;;;;;10.30;7.15;;;4.60;99.90;;;;;;5110213;28;20082;-73
2022/03/23 03:57:04;;;;;;;10.82;7.20;;;4.60;99.90;;;;;;5090762;28;20078;-73
2022/03/23 03:59:30;;;;;;;9.98;6.75;;;4.60;99.90;;;;;;5109694;28;20131;-73
2022/03/23 04:01:56;;;;;;;10.10;6.80;;;4.60;99.90;;;;;;5109147;28;20032;-73
2022/03/23 04:04:21;;;;;;;10.05;6.80;;;4.60;99.90;;;;;;5110700;28;20118;-73
2022/03/23 04:06:48;;;;;;;12.68;8.52;;;4.60;99.90;;;;;;5109738;28;20044;-73
2022/03/23 04:09:14;;;;;;;14.57;8.95;;;4.60;99.90;;;;;;5109796;28;20061;-73
2022/03/23 04:11:40;;;;;;;11.68;7.88;;;4.50;99.90;;;;;;5110555;28;20035;-73
2022/03/23 04:14:05;;;;;;;11.68;7.13;;;4.50;99.90;;;;;;5075800;28;20075;-73
2022/03/23 04:16:31;;;;;;;9.02;5.57;;;4.50;99.90;;;;;;5109272;28;20036;-73
2022/03/23 04:18:57;;;;;;;9.57;6.13;;;4.40;99.90;;;;;;5109769;28;20039;-73
2022/03/23 04:21:22;;;;;;;9.57;6.20;;;4.40;99.90;;;;;;5103497;28;20039;-73
2022/03/23 04:23:48;;;;;;;10.77;6.32;;;4.40;99.90;;;;;;5109923;28;20042;-73
2022/03/23 04:26:14;;;;;;;10.25;6.60;;;4.30;99.90;;;;;;5109449;28;20100;-73
2022/03/23 04:28:39;;;;;;;8.73;5.80;;;4.30;99.90;;;;;;5109758;28;20032;-73
2022/03/23 04:31:07;;;;;;;9.55;5.88;;;4.30;99.90;;;;;;5090103;28;20040;-73
2022/03/23 04:33:33;;;;;;;9.35;5.85;;;4.30;99.90;;;;;;5110107;28;20491;-72
2022/03/23 04:35:59;;;;;;;8.23;5.32;;;4.30;99.90;;;;;;5109581;28;20102;-72
2022/03/23 04:38:26;;;;;;;8.77;5.70;;;4.20;99.90;;;;;;5109499;28;20047;-72
2022/03/23 04:40:52;;;;;;;9.05;5.90;;;4.20;99.90;;;;;;5092422;28;20031;-72
2022/03/23 04:43:18;;;;;;;;;;;4.20;99.90;;;;;;5109942;28;20046;-72
2022/03/23 04:45:44;;;;;;;9.32;5.90;;;4.10;99.90;;;;;;5109370;28;19915;-72
2022/03/23 04:48:09;;;;;;;9.38;6.68;;;4.10;99.90;;;;;;5109826;28;20126;-73
2022/03/23 04:50:35;;;;;;;11.27;7.65;;;4.20;99.90;;;;;;5088937;28;20110;-73
2022/03/23 04:53:01;;;;;;;11.05;6.90;;;4.10;99.90;;;;;;5104837;28;20089;-73
2022/03/23 04:55:26;;;;;;;11.57;7.93;;;4.10;99.90;;;;;;5069075;28;20187;-73
2022/03/23 04:57:52;;;;;;;11.60;7.65;;;4.00;99.90;;;;;;5092043;28;20386;-72
2022/03/23 05:00:20;;;;;;;10.70;7.30;;;4.00;99.90;;;;;;5108124;28;20087;-73
2022/03/23 05:02:48;;;;;;;9.88;6.88;;;4.00;99.90;;;;;;5092084;28;20035;-73
2022/03/23 05:05:14;;;;;;;11.55;7.22;;;4.00;99.90;;;;;;5108294;28;20040;-73
2022/03/23 05:07:41;;;;;;;10.55;6.78;;;4.00;99.90;;;;;;5108893;28;20035;-73
2022/03/23 05:10:08;;;;;;;10.98;7.15;;;4.00;99.90;;;;;;5084927;28;20199;-74
2022/03/23 05:12:38;;;;;;;10.50;7.15;;;3.90;99.90;;;;;;5108498;28;20051;-73
2022/03/23 05:15:06;;;;;;;10.43;7.07;;;3.80;99.90;;;;;;5103838;28;20044;-72
2022/03/23 05:17:32;;;;;;;11.30;7.25;;;3.90;99.90;;;;;;5107732;28;20126;-72
2022/03/23 05:19:58;;;;;;;9.93;6.78;;;3.90;99.90;;;;;;5104825;28;20039;-73
2022/03/23 05:22:24;;;;;;;10.57;7.20;;;3.90;99.90;;;;;;5108279;28;20035;-72
2022/03/23 05:24:50;;;;;;;9.68;6.78;;;3.80;99.90;;;;;;5108182;28;20106;-73
2022/03/23 05:27:15;;;;;;;9.95;6.22;;;3.80;99.90;;;;;;5091600;28;20069;-73
2022/03/23 05:29:47;;;;;;;9.13;6.03;;;3.80;99.90;;;;;;5071029;28;20410;-73
2022/03/23 05:32:16;;;;;;;8.52;5.57;;;3.80;99.90;;;;;;5107263;28;20051;-73
2022/03/23 05:34:44;;;;;;;7.75;5.53;;;3.90;99.90;;;;;;5104888;28;20084;-72
2022/03/23 05:37:09;;;;;;;9.38;5.57;;;3.80;99.90;;;;;;5088309;28;20195;-73
2022/03/23 05:39:35;;;;;;;8.07;5.50;;;3.80;99.90;;;;;;5104425;28;20131;-72
2022/03/23 05:42:01;;;;;;;10.15;6.45;;;3.80;99.90;;;;;;5091226;28;20478;-72
2022/03/23 05:44:27;;;;;;;9.30;6.25;;;3.80;99.90;;;;;;5091279;28;20062;-72
2022/03/23 05:46:52;;;;;;;10.05;6.72;;;3.80;99.90;;;;;;5104692;28;20492;-72
2022/03/23 05:49:18;;;;;;;9.40;6.45;;;3.90;99.90;;;;;;5108382;28;20073;-73
2022/03/23 05:51:43;;;;;;;8.70;6.30;;;3.90;99.90;;;;;;5108000;28;20052;-73
2022/03/23 05:54:09;;;;;;;8.77;5.82;;;3.80;99.90;;;;;;5086998;28;20135;-73
2022/03/23 05:56:35;;;;;;;9.77;6.35;;;3.90;99.90;;;;;;5103806;28;20051;-73
2022/03/23 05:59:01;;;;;;;9.77;6.53;;;3.90;99.90;;;;;;5102756;28;20075;-73
2022/03/23 06:01:27;;;;;;;10.75;6.60;;;3.90;99.90;;;;;;5110499;28;20462;-73
2022/03/23 06:04:02;;;;;;;10.90;7.25;;;4.00;99.90;;;;;;5073811;28;20062;-74
2022/03/23 06:06:28;;;;;;;13.02;8.20;;;4.00;99.90;;;;;;5108525;28;20063;-74
2022/03/23 06:08:54;;;;;;;13.02;8.35;;;4.10;99.90;;;;;;5107262;28;20343;-74
2022/03/23 06:11:20;;;;;;;11.95;7.63;;;4.20;99.90;;;;;;5105132;28;20096;-74
2022/03/23 06:13:45;;;;;;;10.00;6.63;;;4.20;99.90;;;;;;5087678;28;20533;-73
2022/03/23 06:16:11;;;;;;;10.43;6.85;;;4.20;99.90;;;;;;5104447;28;20043;-73
2022/03/23 06:18:38;;;;;;;8.95;6.25;;;4.30;99.90;;;;;;5125436;28;20039;-74
2022/03/23 06:21:04;;;;;;;7.65;5.30;;;4.30;99.90;;;;;;5092409;27;20043;-75
2022/03/23 06:23:33;;;;;;;8.45;5.70;;;4.30;99.90;;;;;;5095205;27;20042;-75
2022/03/23 06:25:59;;;;;;;8.13;5.30;;;4.40;99.90;;;;;;5108317;27;20069;-76
2022/03/23 06:28:25;;;;;;;8.02;5.57;;;4.50;99.90;;;;;;5112481;27;20031;-75
2022/03/23 06:30:52;;;;;;;11.40;6.90;;;4.60;99.90;;;;;;5078347;27;20058;-75
2022/03/23 06:33:19;;;;;;;9.65;6.60;;;4.70;99.90;;;;;;5092524;28;20122;-75
2022/03/23 06:35:45;;;;;;;7.82;5.75;;;4.80;99.90;;;;;;5095121;27;20047;-75
2022/03/23 06:38:14;;;;;;;8.95;6.68;;;4.90;99.90;;;;;;5115344;27;20043;-75
2022/03/23 06:40:40;;;;;;;9.48;6.18;;;5.00;99.90;;;;;;5110416;27;20036;-76
2022/03/23 06:43:06;;;;;;;8.82;5.85;;;5.10;99.90;;;;;;5114911;27;20039;-75
2022/03/23 06:45:31;;;;;;;8.18;5.60;;;5.30;99.90;;;;;;5093778;27;20085;-73
2022/03/23 06:47:57;;;;;;;8.63;6.00;;;5.40;99.90;;;;;;5097005;27;20091;-74
2022/03/23 06:50:24;;;;;;;9.25;6.43;;;5.60;99.90;;;;;;5113753;27;20053;-74
2022/03/23 06:52:49;;;;;;;9.20;6.30;;;5.70;99.90;;;;;;5089241;27;20039;-74
2022/03/23 06:55:15;;;;;;;7.78;5.40;;;5.80;99.90;;;;;;5093606;27;20042;-75
2022/03/23 06:57:41;;;;;;;7.57;5.28;;;5.90;99.90;;;;;;5087814;27;20047;-75
2022/03/23 07:00:13;;;;;;;7.15;5.30;;;6.10;99.90;;;;;;5094843;27;20078;-74
2022/03/23 07:02:49;;;;;;;6.65;4.88;;;6.20;99.90;;;;;;5109550;27;20055;-74
2022/03/23 07:05:16;;;;;;;7.38;5.22;;;6.30;99.90;;;;;;5089203;27;20059;-74
2022/03/23 07:10:26;;;;;;;7.10;5.07;;;6.70;99.90;;;;;;5107278;27;20050;-75
2022/03/23 07:12:52;;;;;;;7.43;5.38;;;7.10;99.90;;;;;;5114066;27;20031;-75
2022/03/23 07:15:18;;;;;;;8.80;6.47;;;7.40;99.90;;;;;;5104766;27;20177;-74
2022/03/23 07:17:43;;;;;;;10.45;7.50;;;7.80;99.90;;;;;;5092839;27;20134;-74
2022/03/23 07:20:09;;;;;;;12.32;9.15;;;8.10;99.90;;;;;;5096820;27;20136;-73
2022/03/23 07:22:35;;;;;;;14.18;11.10;;;8.40;99.90;;;;;;5096569;27;20105;-73
2022/03/23 07:25:01;;;;;;;16.88;12.50;;;8.80;99.90;;;;;;5114089;27;20077;-73
2022/03/23 07:27:27;;;;;;;15.23;11.23;;;9.00;99.90;;;;;;5114605;27;20046;-74
2022/03/23 07:29:53;;;;;;;15.38;11.85;;;9.30;99.90;;;;;;5097702;27;20043;-74
2022/03/23 07:32:19;;;;;;;13.63;10.48;;;9.60;99.90;;;;;;5114420;27;20034;-74
2022/03/23 07:34:44;;;;;;;15.90;11.68;;;9.70;99.90;;;;;;5113943;27;20544;-75
2022/03/23 07:37:10;;;;;;;18.75;14.85;;;10.00;99.90;;;;;;5114120;27;20154;-74
2022/03/23 07:39:36;;;;;;;19.35;14.65;;;10.30;99.90;;;;;;5093707;28;20047;-74
2022/03/23 07:42:02;;;;;;;19.38;15.18;;;10.50;99.90;;;;;;5112129;27;20045;-74
2022/03/23 07:44:35;;;;;;;22.30;16.50;;;10.70;99.90;;;;;;5114113;27;20039;-75
2022/03/23 07:47:15;;;;;;;24.42;17.23;;;10.90;99.90;;;;;;5113904;27;20118;-74
2022/03/23 07:49:41;;;;;;;25.73;19.50;;;11.10;99.90;;;;;;5114615;27;20043;-74
2022/03/23 07:52:08;;;;;;;23.52;16.67;;;11.30;99.90;;;;;;5094726;27;20047;-75
2022/03/23 07:54:34;;;;;;;18.20;13.85;;;11.50;99.90;;;;;;5113851;27;20455;-74
2022/03/23 07:57:00;;;;;;;15.63;12.70;;;11.60;99.90;;;;;;5096850;27;20092;-73
2022/03/23 07:59:26;;;;;;;18.23;14.32;;;11.80;99.90;;;;;;5112914;27;20502;-75
2022/03/23 08:01:52;;;;;;;16.02;12.02;;;12.00;99.90;;;;;;5080352;27;20043;-74
2022/03/23 08:04:18;;;;;;;19.67;15.63;;;12.20;99.90;;;;;;5095766;27;20160;-75
2022/03/23 08:06:43;;;;;;;18.13;14.55;;;12.30;99.90;;;;;;5096942;27;20043;-75
2022/03/23 08:09:09;;;;;;;22.10;17.55;;;12.60;99.90;;;;;;5113819;27;20049;-75
2022/03/23 08:11:36;;;;;;;21.27;16.50;;;12.80;99.90;;;;;;5076523;28;20535;-75
2022/03/23 08:14:01;;;;;;;;;;;12.90;99.90;;;;;;5111004;27;20042;-74
2022/03/23 08:16:27;;;;;;;22.50;16.70;;;13.10;99.90;;;;;;5113164;27;20324;-74
2022/03/23 08:18:53;;;;;;;18.48;15.45;;;13.20;99.90;;;;;;5113867;27;20031;-74
2022/03/23 08:21:21;;;;;;;16.73;12.40;;;13.40;99.90;;;;;;5113775;27;21102;-74
2022/03/23 08:23:47;;;;;;;17.83;14.00;;;13.60;98.70;;;;;;5113471;27;20367;-74
2022/03/23 08:26:14;;;;;;;18.15;14.68;;;13.70;99.60;;;;;;5113070;27;20172;-74
2022/03/23 08:28:47;;;;;;;17.58;13.15;;;13.80;97.90;;;;;;5113148;27;20034;-73
2022/03/23 08:31:13;;;;;;;19.90;13.95;;;13.90;96.00;;;;;;5113072;27;20043;-74
2022/03/23 08:33:40;;;;;;;18.73;15.18;;;13.90;99.30;;;;;;5113498;27;20039;-74
2022/03/23 08:36:07;;;;;;;17.30;13.73;;;14.10;96.50;;;;;;5113046;27;20490;-74
2022/03/23 08:38:34;;;;;;;18.42;15.30;;;14.30;95.10;;;;;;5113157;27;20205;-74
2022/03/23 08:41:01;;;;;;;16.77;13.90;;;14.20;93.30;;;;;;5113113;27;20035;-74
2022/03/23 08:43:26;;;;;;;;;;;14.40;95.60;;;;;;5113551;27;20331;-74
2022/03/23 08:45:52;;;;;;;15.77;12.90;;;14.50;94.00;;;;;;5113032;27;19919;-74
2022/03/23 08:48:18;;;;;;;18.35;15.15;;;14.60;94.30;;;;;;5112980;27;20089;-75
2022/03/23 08:50:48;;;;;;;20.17;16.10;;;14.60;93.00;;;;;;5096011;27;20058;-75
2022/03/23 08:53:14;;;;;;;19.02;14.32;;;14.70;93.00;;;;;;5095994;27;20434;-75
2022/03/23 08:55:40;;;;;;;17.05;13.60;;;14.80;93.20;;;;;;5096265;27;20123;-75
2022/03/23 08:58:07;;;;;;;17.25;14.07;;;14.90;95.00;;;;;;5096268;27;20039;-75
2022/03/23 09:00:33;;;;;;;14.90;12.57;;;15.00;94.00;;;;;;5112178;27;20055;-75
2022/03/23 09:02:59;;;;;;;;;;;14.90;92.30;;;;;;5113315;27;20086;-75
2022/03/23 09:05:25;;;;;;;18.20;14.30;;;15.10;92.80;;;;;;5095828;27;20006;-75
2022/03/23 09:07:50;;;;;;;16.98;13.30;;;15.00;91.10;;;;;;5113107;27;20160;-74
2022/03/23 09:10:18;;;;;;;23.08;16.67;;;15.10;90.70;;;;;;5113004;27;20371;-75
2022/03/23 09:12:44;;;;;;;20.00;14.93;;;15.20;89.20;;;;;;5095932;27;20039;-74
2022/03/23 09:15:12;;;;;;;18.27;14.32;;;15.20;89.90;;;;;;5112425;27;20069;-74
2022/03/23 09:17:38;;;;;;;15.88;13.23;;;15.10;87.90;;;;;;5095520;27;20490;-75
2022/03/23 09:20:05;;;;;;;15.15;11.75;;;15.10;89.60;;;;;;5112391;27;20039;-75
2022/03/23 09:22:37;;;;;;;15.10;11.70;;;15.10;90.00;;;;;;5112671;27;20407;-75
2022/03/23 09:25:08;;;;;;;13.70;11.98;;;15.10;86.90;;;;;;5095898;27;20039;-74
2022/03/23 09:27:38;;;;;;;14.38;10.98;;;15.20;85.10;;;;;;5112269;27;20042;-74
2022/03/23 09:30:08;;;;;;;17.75;13.70;;;15.20;81.20;;;;;;5095806;27;20098;-73
2022/03/23 09:32:34;;;;;;;13.95;11.98;;;15.20;82.70;;;;;;5112558;28;20053;-74
2022/03/23 09:35:00;;;;;;;13.70;11.30;;;15.30;84.40;;;;;;5112587;28;20393;-74
2022/03/23 09:40:11;;;;;;;17.95;13.05;;;15.40;78.40;;;;;;5106486;28;19960;-74
2022/03/23 09:42:38;;;;;;;;;;;15.40;78.30;;;;;;5112020;28;20045;-74
2022/03/23 09:45:04;;;;;;;18.20;14.55;;;15.50;78.40;;;;;;5112731;28;19926;-75
2022/03/23 09:47:30;;;;;;;15.50;12.70;;;15.50;76.00;;;;;;5095372;28;20047;-75
2022/03/23 09:49:56;;;;;;;14.63;11.68;;;15.50;73.00;;;;;;5122443;28;20039;-75
2022/03/23 09:52:22;;;;;;;15.55;12.98;;;15.60;74.30;;;;;;5112805;28;20039;-75
2022/03/23 09:54:48;;;;;;;14.77;11.32;;;15.70;73.20;;;;;;5111890;28;20051;-74
2022/03/23 09:57:14;;;;;;;13.60;11.07;;;15.80;73.70;;;;;;5097959;27;20051;-74
2022/03/23 09:59:40;;;;;;;;;;;15.80;71.30;;;;;;5116403;27;20059;-74
2022/03/23 10:02:12;;;;;;;15.15;13.07;;;15.90;71.20;;;;;;5099060;27;19997;-74
2022/03/23 10:04:50;;;;;;;17.73;13.73;;;16.00;70.70;;;;;;5113317;27;20053;-74
2022/03/23 10:07:28;;;;;;;14.52;12.32;;;16.00;69.80;;;;;;5116291;27;20122;-74
2022/03/23 10:10:16;;;;;;;16.83;14.13;;;16.00;69.40;;;;;;5115874;27;20042;-74
2022/03/23 10:13:19;;;;;;;13.70;12.00;;;16.00;70.20;;;;;;5098615;27;20114;-74
2022/03/23 10:16:22;;;;;;;13.50;11.32;;;16.10;69.50;;;;;;5115355;27;20595;-74
2022/03/23 10:18:58;;;;;;;13.18;11.50;;;16.30;68.40;;;;;;5098971;27;20035;-74
2022/03/23 10:21:32;;;;;;;12.20;10.90;;;16.30;69.30;;;;;;5115586;27;20434;-74
2022/03/23 10:23:58;;;;;;;14.02;11.43;;;16.40;70.50;;;;;;5115373;27;20130;-73
2022/03/23 10:26:24;;;;;;;17.80;13.27;;;16.50;67.60;;;;;;5115497;27;20131;-74
2022/03/23 10:28:50;;;;;;;16.88;13.95;;;16.60;66.70;;;;;;5115695;27;20050;-75
2022/03/23 10:31:27;;;;;;;17.27;13.70;;;16.70;65.40;;;;;;5115031;27;20099;-74
2022/03/23 10:33:59;;;;;;;16.00;12.63;;;16.70;63.30;;;;;;5133917;27;20080;-74
2022/03/23 10:36:28;;;;;;;16.20;13.73;;;16.70;63.20;;;;;;5115314;27;20050;-74
2022/03/23 10:39:03;;;;;;;16.30;13.40;;;16.80;62.80;;;;;;5115592;27;20074;-75
2022/03/23 10:41:30;;;;;;;14.48;12.50;;;16.90;62.60;;;;;;5098793;27;20069;-75
2022/03/23 10:43:57;;;;;;;13.82;11.05;;;17.20;63.50;;;;;;5115060;27;20043;-75
2022/03/23 10:46:23;;;;;;;15.57;12.52;;;17.70;63.60;;;;;;5115322;27;20054;-75
2022/03/23 10:49:01;;;;;;;;;;;17.90;63.60;;;;;;5115800;27;20039;-75
2022/03/23 10:51:32;;;;;;;15.95;12.27;;;18.10;63.00;;;;;;5098522;27;19921;-75
2022/03/23 10:53:58;;;;;;;13.27;11.35;;;18.30;62.50;;;;;;5115100;27;20050;-75
2022/03/23 10:56:32;;;;;;;11.20;9.27;;;18.50;60.20;;;;;;5133312;27;20035;-75
2022/03/23 10:59:16;;;;;;;10.23;8.80;;;18.80;63.70;;;;;;5115129;27;20027;-75
2022/03/23 11:02:03;;;;;;;12.27;10.30;;;19.00;60.60;;;;;;5094087;28;20047;-75
2022/03/23 11:04:50;;;;;;;12.25;8.80;;;19.10;56.30;;;;;;5111868;27;20043;-74
2022/03/23 11:07:35;;;;;;;9.40;7.80;;;19.30;55.10;;;;;;5091209;28;20039;-74
2022/03/23 11:15:47;;;;;;;12.48;8.93;;;19.70;55.30;;;;;;5114398;27;20047;-81
2022/03/23 11:18:20;;;;;;;11.38;7.13;;;19.60;54.50;;;;;;5115732;27;20099;-81
2022/03/23 11:20:53;;;;;;;13.27;7.68;;;19.70;52.00;;;;;;5098719;27;20047;-80
2022/03/23 11:23:25;;;;;;;12.75;8.55;;;19.80;52.90;;;;;;5115348;27;20046;-80
2022/03/23 11:25:56;;;;;;;11.85;8.15;;;19.80;51.40;;;;;;5114073;27;20043;-81
2022/03/23 11:28:23;;;;;;;10.82;7.18;;;20.10;53.60;;;;;;5115305;27;20046;-80
2022/03/23 11:30:50;;;;;;;11.82;7.78;;;20.30;51.30;;;;;;5097498;27;20047;-80
2022/03/23 11:33:20;;;;;;;9.82;7.15;;;20.30;53.00;;;;;;5108307;27;20043;-81
2022/03/23 11:35:49;;;;;;;10.05;7.10;;;20.50;53.90;;;;;;5114795;27;20343;-80
2022/03/23 11:38:18;;;;;;;12.50;8.13;;;20.70;53.50;;;;;;5094368;28;20040;-80
2022/03/23 11:40:46;;;;;;;8.40;6.68;;;20.80;51.40;;;;;;5094289;27;20042;-81
2022/03/23 11:43:13;;;;;;;11.57;6.65;;;21.10;50.90;;;;;;5115166;27;20043;-81
2022/03/23 11:45:40;;;;;;;13.85;7.68;;;21.40;50.80;;;;;;5114726;27;20046;-81
2022/03/23 11:48:24;;;;;;;11.60;7.90;;;21.30;50.50;;;;;;5114584;27;20355;-79
2022/03/23 11:51:19;;;;;;;12.85;7.78;;;21.40;51.60;;;;;;5114407;27;20094;-80
2022/03/23 11:54:15;;;;;;;12.85;8.77;;;21.30;51.30;;;;;;5092376;27;20039;-81
2022/03/23 11:56:58;;;;;;;10.93;7.63;;;21.30;51.00;;;;;;5108151;27;20054;-81
2022/03/23 11:59:28;;;;;;;12.15;7.93;;;21.40;52.10;;;;;;5114195;27;20407;-81
2022/03/23 12:01:55;;;;;;;13.27;8.48;;;21.30;49.20;;;;;;5114540;27;20119;-81
2022/03/23 12:04:25;;;;;;;15.25;8.55;;;21.30;51.20;;;;;;5132953;27;20068;-82
2022/03/23 12:07:04;;;;;;;13.57;7.10;;;21.40;50.90;;;;;;5114272;27;20065;-82
2022/03/23 12:09:37;;;;;;;9.57;6.10;;;21.30;49.90;;;;;;5113715;27;20510;-80
2022/03/23 12:12:05;;;;;;;9.05;6.15;;;21.40;51.20;;;;;;5114201;27;20489;-81
2022/03/23 12:14:36;;;;;;;8.07;6.00;;;21.50;51.10;;;;;;5113866;27;20114;-81
2022/03/23 12:17:06;;;;;;;10.80;6.68;;;21.70;49.60;;;;;;5114220;27;20448;-81
2022/03/23 12:19:51;;;;;;;9.45;5.63;;;21.50;48.80;;;;;;5094248;27;20130;-81
2022/03/23 12:22:39;;;;;;;13.20;6.95;;;21.70;50.70;;;;;;5113613;27;20050;-81
2022/03/23 12:25:25;;;;;;;13.48;6.18;;;21.40;48.90;;;;;;5060734;27;20483;-81
2022/03/23 12:27:54;;;;;;;10.98;6.30;;;21.40;49.80;;;;;;5113503;27;20049;-74
2022/03/23 12:30:58;;;;;;;11.13;6.00;;;21.50;49.40;;;;;;5113407;27;20167;-74
2022/03/23 12:33:31;;;;;;;12.55;7.32;;;21.50;51.10;;;;;;5105001;27;20122;-74
2022/03/23 12:36:04;;;;;;;8.38;5.03;;;21.10;49.10;;;;;;5113033;27;20501;-75
2022/03/23 12:38:30;;;;;;;9.23;5.63;;;21.40;50.30;;;;;;5113143;27;20480;-75
2022/03/23 12:41:05;;;;;;;7.75;4.68;;;21.50;49.80;;;;;;5095763;27;20058;-74
2022/03/23 12:43:36;;;;;;;11.10;6.18;;;21.70;49.40;;;;;;5096480;27;20057;-74
2022/03/23 12:46:04;;;;;;;9.70;5.60;;;21.80;49.80;;;;;;5112931;27;20410;-74
2022/03/23 12:59:50;;;;;;;7.68;4.75;;;21.30;49.60;;;;;;5112768;27;20180;-74
2022/03/23 13:02:23;;;;;;;11.13;5.28;;;21.30;49.00;;;;;;5112496;27;20092;-74
2022/03/23 13:04:52;;;;;;;13.10;5.50;;;21.40;49.40;;;;;;5095768;27;20039;-74
2022/03/23 13:07:29;;;;;;;10.38;5.22;;;21.40;49.00;;;;;;5076484;28;20132;-74
2022/03/23 13:10:07;;;;;;;9.50;5.50;;;21.20;49.50;;;;;;5111463;27;20080;-74
2022/03/23 13:12:33;;;;;;;10.68;5.70;;;21.20;49.90;;;;;;5111569;27;20054;-74
2022/03/23 13:14:59;;;;;;;;;;;21.30;50.60;;;;;;5112211;28;20413;-74
2022/03/23 13:17:26;;;;;;;10.85;6.00;;;21.20;48.90;;;;;;5095067;27;19928;-74
2022/03/23 13:19:58;;;;;;;8.85;5.18;;;21.30;49.00;;;;;;5112367;27;20113;-74
2022/03/23 13:22:36;;;;;;;10.43;5.70;;;21.50;49.60;;;;;;5112391;27;20040;-74
2022/03/23 13:25:12;;;;;;;10.52;5.72;;;21.50;48.30;;;;;;5112768;27;20501;-75